sensor_id;sensor_type;location;lat;lon;timestamp;P1;durP1;ratioP1;P2;durP2;ratioP2
12181;SDS011;6154;51.550;12.138;2023-07-02T00:00:22;2.70;;;1.20;;
12181;SDS011;6154;51.550;12.138;2023-07-02T00:02:50;9.82;;;1.42;;
12181;SDS011;6154;51.550;12.138;2023-07-02T00:05:19;3.47;;;1.30;;
12181;SDS011;6154;51.550;12.138;2023-07-02T00:07:48;3.75;;;1.42;;
12181;SDS011;6154;51.550;12.138;2023-07-02T00:10:17;3.83;;;0.90;;
12181;SDS011;6154;51.550;12.138;2023-07-02T00:12:45;1.12;;;1.08;;
12181;SDS011;6154;51.550;12.138;2023-07-02T00:15:13;2.33;;;1.27;;
12181;SDS011;6154;51.550;12.138;2023-07-02T00:17:42;1.83;;;1.25;;
12181;SDS011;6154;51.550;12.138;2023-07-02T00:20:10;1.58;;;1.20;;
12181;SDS011;6154;51.550;12.138;2023-07-02T00:22:42;3.05;;;1.20;;
12181;SDS011;6154;51.550;12.138;2023-07-02T00:25:14;4.62;;;1.55;;
12181;SDS011;6154;51.550;12.138;2023-07-02T00:27:45;1.90;;;1.30;;
12181;SDS011;6154;51.550;12.138;2023-07-02T00:30:14;1.30;;;1.20;;
12181;SDS011;6154;51.550;12.138;2023-07-02T00:32:42;1.52;;;1.27;;
12181;SDS011;6154;51.550;12.138;2023-07-02T00:35:11;3.45;;;1.40;;
12181;SDS011;6154;51.550;12.138;2023-07-02T00:37:40;2.85;;;1.37;;
12181;SDS011;6154;51.550;12.138;2023-07-02T00:40:09;3.40;;;1.23;;
12181;SDS011;6154;51.550;12.138;2023-07-02T00:42:39;1.40;;;1.30;;
12181;SDS011;6154;51.550;12.138;2023-07-02T00:45:07;2.33;;;1.52;;
12181;SDS011;6154;51.550;12.138;2023-07-02T00:47:36;2.15;;;1.10;;
12181;SDS011;6154;51.550;12.138;2023-07-02T00:50:05;1.60;;;1.25;;
12181;SDS011;6154;51.550;12.138;2023-07-02T00:52:36;1.25;;;1.08;;
12181;SDS011;6154;51.550;12.138;2023-07-02T00:55:06;1.20;;;1.10;;
12181;SDS011;6154;51.550;12.138;2023-07-02T00:57:35;1.92;;;1.15;;
12181;SDS011;6154;51.550;12.138;2023-07-02T01:00:05;2.40;;;1.20;;
12181;SDS011;6154;51.550;12.138;2023-07-02T01:02:34;3.55;;;1.30;;
12181;SDS011;6154;51.550;12.138;2023-07-02T01:05:03;1.37;;;1.27;;
12181;SDS011;6154;51.550;12.138;2023-07-02T01:07:31;2.92;;;1.30;;
12181;SDS011;6154;51.550;12.138;2023-07-02T01:10:00;2.65;;;1.40;;
12181;SDS011;6154;51.550;12.138;2023-07-02T01:12:28;2.83;;;1.17;;
12181;SDS011;6154;51.550;12.138;2023-07-02T01:14:57;1.75;;;1.23;;
12181;SDS011;6154;51.550;12.138;2023-07-02T01:17:31;3.67;;;1.60;;
12181;SDS011;6154;51.550;12.138;2023-07-02T01:20:08;2.60;;;1.40;;
12181;SDS011;6154;51.550;12.138;2023-07-02T01:22:38;3.00;;;1.52;;
12181;SDS011;6154;51.550;12.138;2023-07-02T01:25:07;2.72;;;1.58;;
12181;SDS011;6154;51.550;12.138;2023-07-02T01:27:36;1.80;;;1.30;;
12181;SDS011;6154;51.550;12.138;2023-07-02T01:30:06;2.95;;;1.52;;
12181;SDS011;6154;51.550;12.138;2023-07-02T01:32:36;7.03;;;1.40;;
12181;SDS011;6154;51.550;12.138;2023-07-02T01:35:06;1.90;;;0.88;;
12181;SDS011;6154;51.550;12.138;2023-07-02T01:37:36;4.32;;;1.00;;
12181;SDS011;6154;51.550;12.138;2023-07-02T01:40:06;1.73;;;1.20;;
12181;SDS011;6154;51.550;12.138;2023-07-02T01:42:36;1.55;;;1.15;;
12181;SDS011;6154;51.550;12.138;2023-07-02T01:45:05;5.37;;;1.23;;
12181;SDS011;6154;51.550;12.138;2023-07-02T01:47:34;1.67;;;1.27;;
12181;SDS011;6154;51.550;12.138;2023-07-02T01:50:03;1.87;;;1.30;;
12181;SDS011;6154;51.550;12.138;2023-07-02T01:52:33;2.33;;;1.20;;
12181;SDS011;6154;51.550;12.138;2023-07-02T01:55:03;3.05;;;1.60;;
12181;SDS011;6154;51.550;12.138;2023-07-02T01:57:32;4.68;;;1.30;;
12181;SDS011;6154;51.550;12.138;2023-07-02T02:00:00;3.70;;;1.23;;
12181;SDS011;6154;51.550;12.138;2023-07-02T02:02:41;5.45;;;1.50;;
12181;SDS011;6154;51.550;12.138;2023-07-02T02:05:10;4.25;;;1.48;;
12181;SDS011;6154;51.550;12.138;2023-07-02T02:07:39;4.28;;;1.60;;
12181;SDS011;6154;51.550;12.138;2023-07-02T02:10:10;5.80;;;1.30;;
12181;SDS011;6154;51.550;12.138;2023-07-02T02:12:39;2.45;;;1.10;;
12181;SDS011;6154;51.550;12.138;2023-07-02T02:15:07;1.95;;;1.20;;
12181;SDS011;6154;51.550;12.138;2023-07-02T02:17:38;2.97;;;1.30;;
12181;SDS011;6154;51.550;12.138;2023-07-02T02:20:06;2.35;;;1.12;;
12181;SDS011;6154;51.550;12.138;2023-07-02T02:22:36;2.58;;;1.42;;
12181;SDS011;6154;51.550;12.138;2023-07-02T02:25:04;8.95;;;1.73;;
12181;SDS011;6154;51.550;12.138;2023-07-02T02:27:34;7.82;;;1.20;;
12181;SDS011;6154;51.550;12.138;2023-07-02T02:30:02;5.68;;;1.55;;
12181;SDS011;6154;51.550;12.138;2023-07-02T02:32:31;10.45;;;1.00;;
12181;SDS011;6154;51.550;12.138;2023-07-02T02:35:00;6.28;;;1.33;;
12181;SDS011;6154;51.550;12.138;2023-07-02T02:37:29;2.35;;;1.17;;
12181;SDS011;6154;51.550;12.138;2023-07-02T02:39:58;5.85;;;1.30;;
12181;SDS011;6154;51.550;12.138;2023-07-02T02:42:26;3.42;;;1.62;;
12181;SDS011;6154;51.550;12.138;2023-07-02T02:44:56;2.72;;;1.42;;
12181;SDS011;6154;51.550;12.138;2023-07-02T02:47:24;3.22;;;1.40;;
12181;SDS011;6154;51.550;12.138;2023-07-02T02:49:52;5.53;;;1.42;;
12181;SDS011;6154;51.550;12.138;2023-07-02T02:52:21;2.87;;;1.27;;
12181;SDS011;6154;51.550;12.138;2023-07-02T02:54:49;1.52;;;1.15;;
12181;SDS011;6154;51.550;12.138;2023-07-02T02:57:19;4.82;;;1.30;;
12181;SDS011;6154;51.550;12.138;2023-07-02T02:59:48;6.70;;;1.92;;
12181;SDS011;6154;51.550;12.138;2023-07-02T03:02:17;8.35;;;1.45;;
12181;SDS011;6154;51.550;12.138;2023-07-02T03:04:45;7.50;;;1.98;;
12181;SDS011;6154;51.550;12.138;2023-07-02T03:07:16;4.93;;;1.40;;
12181;SDS011;6154;51.550;12.138;2023-07-02T03:09:45;2.62;;;1.37;;
12181;SDS011;6154;51.550;12.138;2023-07-02T03:12:13;13.35;;;1.80;;
12181;SDS011;6154;51.550;12.138;2023-07-02T03:14:41;5.00;;;1.40;;
12181;SDS011;6154;51.550;12.138;2023-07-02T03:17:09;6.03;;;1.83;;
12181;SDS011;6154;51.550;12.138;2023-07-02T03:19:39;9.13;;;1.40;;
12181;SDS011;6154;51.550;12.138;2023-07-02T03:22:07;6.15;;;1.50;;
12181;SDS011;6154;51.550;12.138;2023-07-02T03:24:37;7.05;;;1.33;;
12181;SDS011;6154;51.550;12.138;2023-07-02T03:27:05;3.33;;;1.55;;
12181;SDS011;6154;51.550;12.138;2023-07-02T03:29:34;9.02;;;1.73;;
12181;SDS011;6154;51.550;12.138;2023-07-02T03:32:04;9.52;;;1.52;;
12181;SDS011;6154;51.550;12.138;2023-07-02T03:34:33;6.50;;;1.52;;
12181;SDS011;6154;51.550;12.138;2023-07-02T03:37:03;5.12;;;1.50;;
12181;SDS011;6154;51.550;12.138;2023-07-02T03:39:31;2.72;;;1.40;;
12181;SDS011;6154;51.550;12.138;2023-07-02T03:41:59;5.32;;;1.45;;
12181;SDS011;6154;51.550;12.138;2023-07-02T03:44:28;1.52;;;1.27;;
12181;SDS011;6154;51.550;12.138;2023-07-02T03:46:56;6.40;;;1.85;;
12181;SDS011;6154;51.550;12.138;2023-07-02T03:49:24;5.72;;;1.73;;
12181;SDS011;6154;51.550;12.138;2023-07-02T03:51:52;7.78;;;1.35;;
12181;SDS011;6154;51.550;12.138;2023-07-02T03:54:22;1.90;;;1.45;;
12181;SDS011;6154;51.550;12.138;2023-07-02T03:56:50;3.03;;;1.27;;
12181;SDS011;6154;51.550;12.138;2023-07-02T03:59:19;4.47;;;1.35;;
12181;SDS011;6154;51.550;12.138;2023-07-02T04:01:47;10.25;;;1.65;;
12181;SDS011;6154;51.550;12.138;2023-07-02T04:04:16;8.18;;;1.65;;
12181;SDS011;6154;51.550;12.138;2023-07-02T04:06:45;7.47;;;1.77;;
12181;SDS011;6154;51.550;12.138;2023-07-02T04:09:13;4.97;;;1.90;;
12181;SDS011;6154;51.550;12.138;2023-07-02T04:11:43;6.15;;;1.40;;
12181;SDS011;6154;51.550;12.138;2023-07-02T04:14:11;4.62;;;1.75;;
12181;SDS011;6154;51.550;12.138;2023-07-02T04:16:39;4.32;;;1.52;;
12181;SDS011;6154;51.550;12.138;2023-07-02T04:19:07;1.67;;;1.45;;
12181;SDS011;6154;51.550;12.138;2023-07-02T04:21:36;4.35;;;1.73;;
12181;SDS011;6154;51.550;12.138;2023-07-02T04:24:05;5.25;;;1.55;;
12181;SDS011;6154;51.550;12.138;2023-07-02T04:26:33;2.72;;;1.73;;
12181;SDS011;6154;51.550;12.138;2023-07-02T04:29:24;7.90;;;1.60;;
12181;SDS011;6154;51.550;12.138;2023-07-02T04:31:53;6.97;;;1.65;;
12181;SDS011;6154;51.550;12.138;2023-07-02T04:34:21;1.75;;;1.17;;
12181;SDS011;6154;51.550;12.138;2023-07-02T04:36:49;2.25;;;1.65;;
12181;SDS011;6154;51.550;12.138;2023-07-02T04:39:20;5.37;;;2.05;;
12181;SDS011;6154;51.550;12.138;2023-07-02T04:41:48;2.70;;;1.75;;
12181;SDS011;6154;51.550;12.138;2023-07-02T04:44:19;4.95;;;1.52;;
12181;SDS011;6154;51.550;12.138;2023-07-02T04:46:59;3.33;;;1.73;;
12181;SDS011;6154;51.550;12.138;2023-07-02T04:49:28;6.15;;;1.60;;
12181;SDS011;6154;51.550;12.138;2023-07-02T04:51:56;1.85;;;1.23;;
12181;SDS011;6154;51.550;12.138;2023-07-02T04:54:24;2.10;;;1.60;;
12181;SDS011;6154;51.550;12.138;2023-07-02T04:56:52;2.47;;;1.58;;
12181;SDS011;6154;51.550;12.138;2023-07-02T04:59:21;6.30;;;2.12;;
12181;SDS011;6154;51.550;12.138;2023-07-02T05:01:49;2.87;;;1.23;;
12181;SDS011;6154;51.550;12.138;2023-07-02T05:04:19;6.37;;;1.92;;
12181;SDS011;6154;51.550;12.138;2023-07-02T05:06:47;5.93;;;1.33;;
12181;SDS011;6154;51.550;12.138;2023-07-02T05:09:16;3.80;;;1.83;;
12181;SDS011;6154;51.550;12.138;2023-07-02T05:11:44;6.32;;;1.77;;
12181;SDS011;6154;51.550;12.138;2023-07-02T05:14:12;5.70;;;1.65;;
12181;SDS011;6154;51.550;12.138;2023-07-02T05:16:40;4.50;;;1.80;;
12181;SDS011;6154;51.550;12.138;2023-07-02T05:19:08;2.50;;;1.70;;
12181;SDS011;6154;51.550;12.138;2023-07-02T05:21:38;4.00;;;1.95;;
12181;SDS011;6154;51.550;12.138;2023-07-02T05:24:07;3.85;;;1.87;;
12181;SDS011;6154;51.550;12.138;2023-07-02T05:26:35;4.12;;;1.90;;
12181;SDS011;6154;51.550;12.138;2023-07-02T05:29:04;4.03;;;2.00;;
12181;SDS011;6154;51.550;12.138;2023-07-02T05:31:32;2.00;;;1.60;;
12181;SDS011;6154;51.550;12.138;2023-07-02T05:34:01;3.58;;;1.80;;
12181;SDS011;6154;51.550;12.138;2023-07-02T05:36:30;5.87;;;2.10;;
12181;SDS011;6154;51.550;12.138;2023-07-02T05:38:59;3.05;;;2.05;;
12181;SDS011;6154;51.550;12.138;2023-07-02T05:41:27;2.35;;;2.10;;
12181;SDS011;6154;51.550;12.138;2023-07-02T05:43:57;2.67;;;2.25;;
12181;SDS011;6154;51.550;12.138;2023-07-02T05:46:26;2.35;;;2.12;;
12181;SDS011;6154;51.550;12.138;2023-07-02T05:48:54;2.10;;;1.90;;
12181;SDS011;6154;51.550;12.138;2023-07-02T05:51:24;5.47;;;2.30;;
12181;SDS011;6154;51.550;12.138;2023-07-02T05:53:52;4.70;;;2.37;;
12181;SDS011;6154;51.550;12.138;2023-07-02T05:56:22;4.28;;;2.70;;
12181;SDS011;6154;51.550;12.138;2023-07-02T05:58:50;4.62;;;2.75;;
12181;SDS011;6154;51.550;12.138;2023-07-02T06:01:18;4.70;;;2.95;;
12181;SDS011;6154;51.550;12.138;2023-07-02T06:03:49;4.15;;;2.50;;
12181;SDS011;6154;51.550;12.138;2023-07-02T06:06:17;2.80;;;2.58;;
12181;SDS011;6154;51.550;12.138;2023-07-02T06:08:45;2.55;;;2.35;;
12181;SDS011;6154;51.550;12.138;2023-07-02T06:11:14;2.55;;;2.28;;
12181;SDS011;6154;51.550;12.138;2023-07-02T06:13:43;2.60;;;2.40;;
12181;SDS011;6154;51.550;12.138;2023-07-02T06:16:12;2.47;;;2.30;;
12181;SDS011;6154;51.550;12.138;2023-07-02T06:18:40;3.20;;;2.42;;
12181;SDS011;6154;51.550;12.138;2023-07-02T06:21:08;4.37;;;2.67;;
12181;SDS011;6154;51.550;12.138;2023-07-02T06:23:40;2.90;;;2.65;;
12181;SDS011;6154;51.550;12.138;2023-07-02T06:26:09;2.53;;;2.33;;
12181;SDS011;6154;51.550;12.138;2023-07-02T06:28:38;4.82;;;2.53;;
12181;SDS011;6154;51.550;12.138;2023-07-02T06:31:08;2.12;;;1.92;;
12181;SDS011;6154;51.550;12.138;2023-07-02T06:33:52;3.20;;;2.90;;
12181;SDS011;6154;51.550;12.138;2023-07-02T06:36:21;2.75;;;2.30;;
12181;SDS011;6154;51.550;12.138;2023-07-02T06:38:50;2.05;;;1.92;;
12181;SDS011;6154;51.550;12.138;2023-07-02T06:41:18;2.50;;;2.30;;
12181;SDS011;6154;51.550;12.138;2023-07-02T06:43:49;2.37;;;2.17;;
12181;SDS011;6154;51.550;12.138;2023-07-02T06:46:19;2.60;;;1.87;;
12181;SDS011;6154;51.550;12.138;2023-07-02T06:48:48;3.10;;;1.98;;
12181;SDS011;6154;51.550;12.138;2023-07-02T06:51:17;2.50;;;2.05;;
12181;SDS011;6154;51.550;12.138;2023-07-02T06:53:46;2.42;;;1.90;;
12181;SDS011;6154;51.550;12.138;2023-07-02T06:56:14;3.25;;;1.87;;
12181;SDS011;6154;51.550;12.138;2023-07-02T06:58:43;2.65;;;1.50;;
12181;SDS011;6154;51.550;12.138;2023-07-02T07:01:15;1.80;;;1.70;;
12181;SDS011;6154;51.550;12.138;2023-07-02T07:03:52;1.60;;;1.50;;
12181;SDS011;6154;51.550;12.138;2023-07-02T07:06:23;2.85;;;1.70;;
12181;SDS011;6154;51.550;12.138;2023-07-02T07:08:53;3.10;;;1.92;;
12181;SDS011;6154;51.550;12.138;2023-07-02T07:11:30;1.37;;;1.27;;
12181;SDS011;6154;51.550;12.138;2023-07-02T07:13:59;2.97;;;1.10;;
12181;SDS011;6154;51.550;12.138;2023-07-02T07:16:28;1.75;;;1.40;;
12181;SDS011;6154;51.550;12.138;2023-07-02T07:18:58;1.20;;;1.02;;
12181;SDS011;6154;51.550;12.138;2023-07-02T07:21:31;3.55;;;1.17;;
12181;SDS011;6154;51.550;12.138;2023-07-02T07:24:00;2.53;;;1.27;;
12181;SDS011;6154;51.550;12.138;2023-07-02T07:26:30;1.92;;;1.20;;
12181;SDS011;6154;51.550;12.138;2023-07-02T07:28:58;1.85;;;1.30;;
12181;SDS011;6154;51.550;12.138;2023-07-02T07:31:30;1.30;;;1.20;;
12181;SDS011;6154;51.550;12.138;2023-07-02T07:34:04;2.25;;;1.30;;
12181;SDS011;6154;51.550;12.138;2023-07-02T07:36:37;2.70;;;1.35;;
12181;SDS011;6154;51.550;12.138;2023-07-02T07:39:05;4.53;;;1.42;;
12181;SDS011;6154;51.550;12.138;2023-07-02T07:41:35;1.45;;;1.12;;
12181;SDS011;6154;51.550;12.138;2023-07-02T07:44:06;1.62;;;1.20;;
12181;SDS011;6154;51.550;12.138;2023-07-02T07:46:35;1.33;;;1.23;;
12181;SDS011;6154;51.550;12.138;2023-07-02T07:49:06;1.87;;;1.27;;
12181;SDS011;6154;51.550;12.138;2023-07-02T07:51:35;1.55;;;1.30;;
12181;SDS011;6154;51.550;12.138;2023-07-02T07:54:07;1.25;;;1.12;;
12181;SDS011;6154;51.550;12.138;2023-07-02T07:56:36;2.28;;;1.10;;
12181;SDS011;6154;51.550;12.138;2023-07-02T07:59:05;1.02;;;0.82;;
12181;SDS011;6154;51.550;12.138;2023-07-02T08:01:34;1.25;;;1.15;;
12181;SDS011;6154;51.550;12.138;2023-07-02T08:04:07;1.60;;;1.20;;
12181;SDS011;6154;51.550;12.138;2023-07-02T08:06:36;1.35;;;1.25;;
12181;SDS011;6154;51.550;12.138;2023-07-02T08:09:05;1.85;;;1.00;;
12181;SDS011;6154;51.550;12.138;2023-07-02T08:11:33;1.08;;;1.08;;
12181;SDS011;6154;51.550;12.138;2023-07-02T08:14:02;2.12;;;1.25;;
12181;SDS011;6154;51.550;12.138;2023-07-02T08:16:30;1.62;;;0.93;;
12181;SDS011;6154;51.550;12.138;2023-07-02T08:18:59;1.23;;;1.12;;
12181;SDS011;6154;51.550;12.138;2023-07-02T08:21:30;0.90;;;0.90;;
12181;SDS011;6154;51.550;12.138;2023-07-02T08:23:58;1.52;;;1.05;;
12181;SDS011;6154;51.550;12.138;2023-07-02T08:26:27;2.20;;;1.02;;
12181;SDS011;6154;51.550;12.138;2023-07-02T08:28:56;1.27;;;1.17;;
12181;SDS011;6154;51.550;12.138;2023-07-02T08:31:32;1.75;;;1.00;;
12181;SDS011;6154;51.550;12.138;2023-07-02T08:34:02;1.33;;;1.10;;
12181;SDS011;6154;51.550;12.138;2023-07-02T08:36:33;1.20;;;1.00;;
12181;SDS011;6154;51.550;12.138;2023-07-02T08:39:05;2.05;;;1.15;;
12181;SDS011;6154;51.550;12.138;2023-07-02T08:41:41;2.22;;;1.05;;
12181;SDS011;6154;51.550;12.138;2023-07-02T08:44:11;0.90;;;0.90;;
12181;SDS011;6154;51.550;12.138;2023-07-02T08:46:40;2.75;;;1.20;;
12181;SDS011;6154;51.550;12.138;2023-07-02T08:49:09;2.45;;;1.40;;
12181;SDS011;6154;51.550;12.138;2023-07-02T08:51:39;3.08;;;0.95;;
12181;SDS011;6154;51.550;12.138;2023-07-02T08:54:12;1.50;;;1.30;;
12181;SDS011;6154;51.550;12.138;2023-07-02T08:56:41;2.65;;;1.58;;
12181;SDS011;6154;51.550;12.138;2023-07-02T08:59:09;2.22;;;1.52;;
12181;SDS011;6154;51.550;12.138;2023-07-02T09:01:44;3.35;;;1.90;;
12181;SDS011;6154;51.550;12.138;2023-07-02T09:04:17;5.47;;;2.28;;
12181;SDS011;6154;51.550;12.138;2023-07-02T09:06:48;3.72;;;2.40;;
12181;SDS011;6154;51.550;12.138;2023-07-02T09:09:17;5.30;;;2.53;;
12181;SDS011;6154;51.550;12.138;2023-07-02T09:11:46;3.25;;;2.20;;
12181;SDS011;6154;51.550;12.138;2023-07-02T09:14:26;4.60;;;2.37;;
12181;SDS011;6154;51.550;12.138;2023-07-02T09:17:01;5.15;;;2.37;;
12181;SDS011;6154;51.550;12.138;2023-07-02T09:19:31;7.10;;;3.00;;
12181;SDS011;6154;51.550;12.138;2023-07-02T09:22:01;4.97;;;2.65;;
12181;SDS011;6154;51.550;12.138;2023-07-02T09:24:31;5.15;;;2.80;;
12181;SDS011;6154;51.550;12.138;2023-07-02T09:27:00;11.88;;;2.78;;
12181;SDS011;6154;51.550;12.138;2023-07-02T09:29:29;6.62;;;2.55;;
12181;SDS011;6154;51.550;12.138;2023-07-02T09:32:00;3.33;;;2.30;;
12181;SDS011;6154;51.550;12.138;2023-07-02T09:34:37;4.43;;;2.25;;
12181;SDS011;6154;51.550;12.138;2023-07-02T09:37:09;3.78;;;2.50;;
12181;SDS011;6154;51.550;12.138;2023-07-02T09:39:38;8.32;;;2.72;;
12181;SDS011;6154;51.550;12.138;2023-07-02T09:42:06;4.18;;;2.90;;
12181;SDS011;6154;51.550;12.138;2023-07-02T09:44:39;3.97;;;2.25;;
12181;SDS011;6154;51.550;12.138;2023-07-02T09:47:10;5.05;;;2.40;;
12181;SDS011;6154;51.550;12.138;2023-07-02T09:49:41;6.05;;;2.75;;
12181;SDS011;6154;51.550;12.138;2023-07-02T09:52:13;5.55;;;2.83;;
12181;SDS011;6154;51.550;12.138;2023-07-02T09:54:42;4.57;;;2.33;;
12181;SDS011;6154;51.550;12.138;2023-07-02T09:57:10;6.70;;;2.67;;
12181;SDS011;6154;51.550;12.138;2023-07-02T09:59:39;8.63;;;2.90;;
12181;SDS011;6154;51.550;12.138;2023-07-02T10:02:08;5.35;;;2.67;;
12181;SDS011;6154;51.550;12.138;2023-07-02T10:04:41;3.67;;;2.53;;
12181;SDS011;6154;51.550;12.138;2023-07-02T10:07:12;5.75;;;2.30;;
12181;SDS011;6154;51.550;12.138;2023-07-02T10:09:43;3.47;;;2.40;;
12181;SDS011;6154;51.550;12.138;2023-07-02T10:12:17;4.45;;;2.22;;
12181;SDS011;6154;51.550;12.138;2023-07-02T10:14:47;4.25;;;2.30;;
12181;SDS011;6154;51.550;12.138;2023-07-02T10:17:24;3.10;;;2.50;;
12181;SDS011;6154;51.550;12.138;2023-07-02T10:19:55;5.07;;;2.67;;
12181;SDS011;6154;51.550;12.138;2023-07-02T10:22:26;4.12;;;2.60;;
12181;SDS011;6154;51.550;12.138;2023-07-02T10:24:55;3.20;;;2.35;;
12181;SDS011;6154;51.550;12.138;2023-07-02T10:27:33;5.05;;;2.50;;
12181;SDS011;6154;51.550;12.138;2023-07-02T10:30:03;3.42;;;2.45;;
12181;SDS011;6154;51.550;12.138;2023-07-02T10:32:33;7.87;;;2.72;;
12181;SDS011;6154;51.550;12.138;2023-07-02T10:35:02;4.30;;;2.70;;
12181;SDS011;6154;51.550;12.138;2023-07-02T10:37:44;4.32;;;2.67;;
12181;SDS011;6154;51.550;12.138;2023-07-02T10:40:13;5.87;;;2.80;;
12181;SDS011;6154;51.550;12.138;2023-07-02T10:42:45;3.47;;;2.90;;
12181;SDS011;6154;51.550;12.138;2023-07-02T10:45:15;11.07;;;2.53;;
12181;SDS011;6154;51.550;12.138;2023-07-02T10:47:46;5.45;;;2.97;;
12181;SDS011;6154;51.550;12.138;2023-07-02T10:50:15;5.50;;;3.08;;
12181;SDS011;6154;51.550;12.138;2023-07-02T10:52:46;5.05;;;2.62;;
12181;SDS011;6154;51.550;12.138;2023-07-02T10:55:17;5.30;;;3.10;;
12181;SDS011;6154;51.550;12.138;2023-07-02T10:57:47;7.03;;;2.95;;
12181;SDS011;6154;51.550;12.138;2023-07-02T11:00:22;7.12;;;2.87;;
12181;SDS011;6154;51.550;12.138;2023-07-02T11:02:50;4.97;;;3.12;;
12181;SDS011;6154;51.550;12.138;2023-07-02T11:05:19;4.47;;;2.58;;
12181;SDS011;6154;51.550;12.138;2023-07-02T11:07:49;9.23;;;4.12;;
12181;SDS011;6154;51.550;12.138;2023-07-02T11:10:23;5.32;;;3.00;;
12181;SDS011;6154;51.550;12.138;2023-07-02T11:12:53;5.78;;;3.58;;
12181;SDS011;6154;51.550;12.138;2023-07-02T11:15:21;7.10;;;3.78;;
12181;SDS011;6154;51.550;12.138;2023-07-02T11:17:49;7.90;;;3.37;;
12181;SDS011;6154;51.550;12.138;2023-07-02T11:20:18;4.72;;;2.92;;
12181;SDS011;6154;51.550;12.138;2023-07-02T11:22:46;4.65;;;3.47;;
12181;SDS011;6154;51.550;12.138;2023-07-02T11:25:16;4.80;;;2.78;;
12181;SDS011;6154;51.550;12.138;2023-07-02T11:27:47;6.65;;;3.80;;
12181;SDS011;6154;51.550;12.138;2023-07-02T11:30:16;4.53;;;3.35;;
12181;SDS011;6154;51.550;12.138;2023-07-02T11:32:50;8.43;;;3.20;;
12181;SDS011;6154;51.550;12.138;2023-07-02T11:35:20;6.57;;;3.35;;
12181;SDS011;6154;51.550;12.138;2023-07-02T11:37:49;6.37;;;3.45;;
12181;SDS011;6154;51.550;12.138;2023-07-02T11:40:18;7.70;;;3.85;;
12181;SDS011;6154;51.550;12.138;2023-07-02T11:42:48;6.65;;;3.83;;
12181;SDS011;6154;51.550;12.138;2023-07-02T11:45:16;6.60;;;3.65;;
12181;SDS011;6154;51.550;12.138;2023-07-02T11:47:45;4.45;;;3.03;;
12181;SDS011;6154;51.550;12.138;2023-07-02T11:50:13;6.72;;;3.22;;
12181;SDS011;6154;51.550;12.138;2023-07-02T11:52:53;5.60;;;3.53;;
12181;SDS011;6154;51.550;12.138;2023-07-02T11:55:23;6.95;;;3.58;;
12181;SDS011;6154;51.550;12.138;2023-07-02T11:57:51;5.40;;;3.20;;
12181;SDS011;6154;51.550;12.138;2023-07-02T12:00:20;6.65;;;3.17;;
12181;SDS011;6154;51.550;12.138;2023-07-02T12:02:49;6.87;;;3.10;;
12181;SDS011;6154;51.550;12.138;2023-07-02T12:05:18;7.85;;;3.10;;
12181;SDS011;6154;51.550;12.138;2023-07-02T12:07:47;4.75;;;3.03;;
12181;SDS011;6154;51.550;12.138;2023-07-02T12:10:16;8.05;;;3.97;;
12181;SDS011;6154;51.550;12.138;2023-07-02T12:12:45;6.28;;;3.53;;
12181;SDS011;6154;51.550;12.138;2023-07-02T12:15:14;7.30;;;2.70;;
12181;SDS011;6154;51.550;12.138;2023-07-02T12:17:42;8.43;;;3.25;;
12181;SDS011;6154;51.550;12.138;2023-07-02T12:20:11;6.22;;;3.40;;
12181;SDS011;6154;51.550;12.138;2023-07-02T12:22:39;5.72;;;3.72;;
12181;SDS011;6154;51.550;12.138;2023-07-02T12:25:08;6.12;;;2.67;;
12181;SDS011;6154;51.550;12.138;2023-07-02T12:27:40;7.82;;;3.60;;
12181;SDS011;6154;51.550;12.138;2023-07-02T12:30:11;6.20;;;3.30;;
12181;SDS011;6154;51.550;12.138;2023-07-02T12:32:44;6.03;;;3.85;;
12181;SDS011;6154;51.550;12.138;2023-07-02T12:35:14;7.57;;;3.72;;
12181;SDS011;6154;51.550;12.138;2023-07-02T12:37:43;4.72;;;3.28;;
12181;SDS011;6154;51.550;12.138;2023-07-02T12:40:12;6.47;;;3.58;;
12181;SDS011;6154;51.550;12.138;2023-07-02T12:42:42;7.22;;;3.40;;
12181;SDS011;6154;51.550;12.138;2023-07-02T12:45:34;6.70;;;3.37;;
12181;SDS011;6154;51.550;12.138;2023-07-02T12:48:03;7.35;;;3.87;;
12181;SDS011;6154;51.550;12.138;2023-07-02T12:50:31;11.05;;;3.78;;
12181;SDS011;6154;51.550;12.138;2023-07-02T12:53:00;6.07;;;3.37;;
12181;SDS011;6154;51.550;12.138;2023-07-02T12:55:28;7.85;;;3.97;;
12181;SDS011;6154;51.550;12.138;2023-07-02T12:57:56;6.70;;;3.45;;
12181;SDS011;6154;51.550;12.138;2023-07-02T13:00:25;7.20;;;3.72;;
12181;SDS011;6154;51.550;12.138;2023-07-02T13:02:55;6.20;;;3.78;;
12181;SDS011;6154;51.550;12.138;2023-07-02T13:05:31;5.40;;;3.37;;
12181;SDS011;6154;51.550;12.138;2023-07-02T13:08:00;7.95;;;4.57;;
12181;SDS011;6154;51.550;12.138;2023-07-02T13:10:32;6.37;;;4.37;;
12181;SDS011;6154;51.550;12.138;2023-07-02T13:13:03;7.12;;;3.20;;
12181;SDS011;6154;51.550;12.138;2023-07-02T13:15:48;8.85;;;3.87;;
12181;SDS011;6154;51.550;12.138;2023-07-02T13:18:19;7.90;;;3.95;;
12181;SDS011;6154;51.550;12.138;2023-07-02T13:20:47;7.65;;;4.47;;
12181;SDS011;6154;51.550;12.138;2023-07-02T13:23:15;9.90;;;4.32;;
12181;SDS011;6154;51.550;12.138;2023-07-02T13:25:44;7.65;;;4.45;;
12181;SDS011;6154;51.550;12.138;2023-07-02T13:28:13;9.30;;;4.00;;
12181;SDS011;6154;51.550;12.138;2023-07-02T13:30:41;9.27;;;4.55;;
12181;SDS011;6154;51.550;12.138;2023-07-02T13:33:09;8.30;;;4.37;;
12181;SDS011;6154;51.550;12.138;2023-07-02T13:35:39;10.13;;;4.28;;
12181;SDS011;6154;51.550;12.138;2023-07-02T13:38:08;9.80;;;4.45;;
12181;SDS011;6154;51.550;12.138;2023-07-02T13:40:36;9.52;;;3.75;;
12181;SDS011;6154;51.550;12.138;2023-07-02T13:43:05;5.93;;;3.75;;
12181;SDS011;6154;51.550;12.138;2023-07-02T13:45:33;8.93;;;4.78;;
12181;SDS011;6154;51.550;12.138;2023-07-02T13:48:02;4.95;;;3.42;;
12181;SDS011;6154;51.550;12.138;2023-07-02T13:50:32;7.18;;;3.97;;
12181;SDS011;6154;51.550;12.138;2023-07-02T13:53:01;6.40;;;4.25;;
12181;SDS011;6154;51.550;12.138;2023-07-02T13:55:30;9.63;;;4.32;;
12181;SDS011;6154;51.550;12.138;2023-07-02T13:57:58;7.40;;;4.15;;
12181;SDS011;6154;51.550;12.138;2023-07-02T14:00:28;8.98;;;3.97;;
12181;SDS011;6154;51.550;12.138;2023-07-02T14:02:57;7.82;;;3.85;;
12181;SDS011;6154;51.550;12.138;2023-07-02T14:05:26;8.88;;;4.18;;
12181;SDS011;6154;51.550;12.138;2023-07-02T14:07:54;8.25;;;4.57;;
12181;SDS011;6154;51.550;12.138;2023-07-02T14:10:23;6.40;;;4.10;;
12181;SDS011;6154;51.550;12.138;2023-07-02T14:12:51;9.65;;;4.60;;
12181;SDS011;6154;51.550;12.138;2023-07-02T14:15:19;8.38;;;4.75;;
12181;SDS011;6154;51.550;12.138;2023-07-02T14:17:49;9.40;;;4.37;;
12181;SDS011;6154;51.550;12.138;2023-07-02T14:20:19;8.27;;;4.47;;
12181;SDS011;6154;51.550;12.138;2023-07-02T14:22:47;8.60;;;4.07;;
12181;SDS011;6154;51.550;12.138;2023-07-02T14:25:15;13.15;;;4.25;;
12181;SDS011;6154;51.550;12.138;2023-07-02T14:28:04;6.53;;;4.12;;
12181;SDS011;6154;51.550;12.138;2023-07-02T14:30:32;7.75;;;3.53;;
12181;SDS011;6154;51.550;12.138;2023-07-02T14:33:02;8.25;;;4.15;;
12181;SDS011;6154;51.550;12.138;2023-07-02T14:35:31;9.18;;;4.50;;
12181;SDS011;6154;51.550;12.138;2023-07-02T14:37:59;9.05;;;4.50;;
12181;SDS011;6154;51.550;12.138;2023-07-02T14:40:31;8.63;;;4.37;;
12181;SDS011;6154;51.550;12.138;2023-07-02T14:43:00;10.52;;;4.70;;
12181;SDS011;6154;51.550;12.138;2023-07-02T14:45:30;8.77;;;4.78;;
12181;SDS011;6154;51.550;12.138;2023-07-02T14:47:59;7.60;;;4.30;;
12181;SDS011;6154;51.550;12.138;2023-07-02T14:50:29;6.53;;;4.40;;
12181;SDS011;6154;51.550;12.138;2023-07-02T14:52:58;8.55;;;5.25;;
12181;SDS011;6154;51.550;12.138;2023-07-02T14:55:26;8.45;;;4.68;;
12181;SDS011;6154;51.550;12.138;2023-07-02T14:57:55;7.45;;;4.28;;
12181;SDS011;6154;51.550;12.138;2023-07-02T15:00:23;6.75;;;4.37;;
12181;SDS011;6154;51.550;12.138;2023-07-02T15:02:51;11.12;;;4.53;;